createdAt,value
2019-02-18T00:00:38.666Z,1382.40
2019-02-18T00:01:08.750Z,1382.40
2019-02-18T00:01:37.215Z,1382.40
2019-02-18T00:02:05.581Z,1382.40
2019-02-18T00:02:33.958Z,1382.40
2019-02-18T00:03:02.280Z,1382.40
2019-02-18T00:03:30.719Z,1382.40
2019-02-18T00:03:59.094Z,1382.40
2019-02-18T00:04:27.509Z,1382.40
2019-02-18T00:04:55.877Z,1382.40
2019-02-18T00:05:24.282Z,1382.40
2019-02-18T00:05:52.657Z,1382.40
2019-02-18T00:06:21.062Z,1382.40
2019-02-18T00:06:49.400Z,1382.40
2019-02-18T00:07:17.783Z,1382.40
2019-02-18T00:07:46.153Z,1382.40
2019-02-18T00:08:14.450Z,1382.40
2019-02-18T00:08:42.821Z,1382.40
2019-02-18T00:09:11.155Z,1408.00
2019-02-18T00:09:39.505Z,1408.00
2019-02-18T00:10:08.062Z,1408.00
2019-02-18T00:10:36.353Z,1408.00
2019-02-18T00:11:04.722Z,1408.00
2019-02-18T00:11:33.087Z,1408.00
2019-02-18T00:12:01.458Z,1408.00
2019-02-18T00:12:29.838Z,1408.00
2019-02-18T00:12:58.212Z,1408.00
2019-02-18T00:13:26.590Z,1408.00
2019-02-18T00:13:54.989Z,1408.00
2019-02-18T00:14:23.342Z,1408.00
2019-02-18T00:14:51.716Z,1408.00
2019-02-18T00:15:20.135Z,1408.00
2019-02-18T00:15:48.502Z,1408.00
2019-02-18T00:16:16.798Z,1408.00
2019-02-18T00:16:45.100Z,1408.00
2019-02-18T00:17:13.598Z,1408.00
2019-02-18T00:17:41.929Z,1408.00
2019-02-18T00:18:10.375Z,1408.00
2019-02-18T00:18:38.742Z,1408.00
2019-02-18T00:19:07.186Z,1408.00
2019-02-18T00:19:35.478Z,1408.00
2019-02-18T00:20:04.325Z,1408.00
2019-02-18T00:20:32.718Z,1408.00
2019-02-18T00:21:01.107Z,1433.60
2019-02-18T00:21:29.543Z,1408.00
2019-02-18T00:21:57.918Z,1408.00
2019-02-18T00:22:26.318Z,1433.60
2019-02-18T00:22:54.669Z,1433.60
2019-02-18T00:23:23.046Z,1433.60
2019-02-18T00:23:51.338Z,1433.60
2019-02-18T00:24:19.722Z,1433.60
2019-02-18T00:24:48.022Z,1433.60
2019-02-18T00:25:16.394Z,1433.60
2019-02-18T00:25:44.789Z,1433.60
2019-02-18T00:26:13.161Z,1433.60
2019-02-18T00:26:41.527Z,1433.60
2019-02-18T00:27:12.519Z,1433.60
2019-02-18T00:27:40.886Z,1433.60
2019-02-18T00:28:09.259Z,1433.60
2019-02-18T00:28:37.626Z,1433.60
2019-02-18T00:29:06.007Z,1433.60
2019-02-18T00:29:34.378Z,1433.60
2019-02-18T00:30:02.822Z,1433.60
2019-02-18T00:30:31.209Z,1433.60
2019-02-18T00:30:59.506Z,1433.60
2019-02-18T00:31:27.874Z,1433.60
2019-02-18T00:31:56.257Z,1433.60
2019-02-18T00:32:24.661Z,1433.60
2019-02-18T00:32:53.037Z,1433.60
2019-02-18T00:33:21.415Z,1433.60
2019-02-18T00:33:49.786Z,1433.60
2019-02-18T00:34:18.084Z,1433.60
2019-02-18T00:34:46.553Z,1433.60
2019-02-18T00:35:15.014Z,1433.60
2019-02-18T00:35:43.443Z,1433.60
2019-02-18T00:36:11.833Z,1433.60
2019-02-18T00:36:40.206Z,1433.60
2019-02-18T00:37:08.569Z,1433.60
2019-02-18T00:37:36.965Z,1433.60
2019-02-18T00:38:05.354Z,1433.60
2019-02-18T00:38:33.738Z,1433.60
2019-02-18T00:39:02.118Z,1433.60
2019-02-18T00:39:30.506Z,1433.60
2019-02-18T00:39:58.830Z,1433.60
2019-02-18T00:40:27.214Z,1433.60
2019-02-18T00:40:55.534Z,1433.60
2019-02-18T00:41:23.829Z,1433.60
2019-02-18T00:41:52.140Z,1433.60
2019-02-18T00:42:20.510Z,1433.60
2019-02-18T00:42:48.886Z,1433.60
2019-02-18T00:43:17.222Z,1433.60
2019-02-18T00:43:45.595Z,1433.60
2019-02-18T00:44:14.058Z,1433.60
2019-02-18T00:44:42.431Z,1433.60
2019-02-18T00:45:12.809Z,1433.60
2019-02-18T00:45:41.203Z,1433.60
2019-02-18T00:46:09.594Z,1433.60
2019-02-18T00:46:37.899Z,1433.60
2019-02-18T00:47:06.265Z,1433.60
2019-02-18T00:47:36.271Z,1433.60
2019-02-18T00:48:04.561Z,1433.60
2019-02-18T00:48:32.857Z,1433.60
2019-02-18T00:49:01.218Z,1433.60
2019-02-18T00:49:29.622Z,1433.60
2019-02-18T00:49:58.037Z,1433.60
2019-02-18T00:50:26.411Z,1433.60
2019-02-18T00:50:54.798Z,1433.60
2019-02-18T00:51:23.110Z,1433.60
2019-02-18T00:51:51.496Z,1433.60
2019-02-18T00:52:19.861Z,1433.60
2019-02-18T00:52:48.154Z,1433.60
2019-02-18T00:53:16.531Z,1433.60
2019-02-18T00:53:44.898Z,1433.60
2019-02-18T00:54:13.281Z,1433.60
2019-02-18T00:54:41.649Z,1433.60
2019-02-18T00:55:10.026Z,1433.60
2019-02-18T00:55:38.402Z,1433.60
2019-02-18T00:56:06.792Z,1433.60
2019-02-18T00:56:35.162Z,1433.60
2019-02-18T00:57:03.533Z,1433.60
2019-02-18T00:57:31.906Z,1433.60
2019-02-18T00:58:00.282Z,1433.60
2019-02-18T00:58:28.657Z,1433.60
2019-02-18T00:58:56.950Z,1433.60
2019-02-18T00:59:25.243Z,1433.60
2019-02-18T00:59:53.609Z,1433.60
2019-02-18T01:00:21.899Z,1433.60
2019-02-18T01:00:50.286Z,1433.60
2019-02-18T01:01:18.650Z,1433.60
2019-02-18T01:01:47.036Z,1433.60
2019-02-18T01:02:15.327Z,1433.60
2019-02-18T01:02:43.768Z,1433.60
2019-02-18T01:03:12.130Z,1459.20
2019-02-18T01:03:40.430Z,1433.60
2019-02-18T01:04:08.886Z,1459.20
2019-02-18T01:04:37.199Z,1459.20
2019-02-18T01:05:06.841Z,1459.20
2019-02-18T01:05:35.207Z,1459.20
2019-02-18T01:06:03.577Z,1459.20
2019-02-18T01:06:31.962Z,1459.20
2019-02-18T01:07:00.342Z,1459.20
2019-02-18T01:07:34.773Z,1459.20
2019-02-18T01:07:58.728Z,1459.20
2019-02-18T01:08:27.096Z,1459.20
2019-02-18T01:08:55.478Z,1459.20
2019-02-18T01:09:23.841Z,1459.20
2019-02-18T01:09:52.143Z,1459.20
2019-02-18T01:10:20.437Z,1459.20
2019-02-18T01:10:48.810Z,1459.20
2019-02-18T01:11:17.107Z,1459.20
2019-02-18T01:11:45.582Z,1459.20
2019-02-18T01:12:13.884Z,1459.20
2019-02-18T01:12:42.244Z,1459.20
2019-02-18T01:13:10.666Z,1459.20
2019-02-18T01:13:39.134Z,1459.20
2019-02-18T01:14:09.075Z,1459.20
2019-02-18T01:14:37.446Z,1459.20
2019-02-18T01:15:08.849Z,1459.20
2019-02-18T01:15:37.217Z,1459.20
2019-02-18T01:16:05.662Z,1459.20
2019-02-18T01:16:34.031Z,1459.20
2019-02-18T01:17:02.426Z,1459.20
2019-02-18T01:17:30.798Z,1433.60
2019-02-18T01:17:59.245Z,1459.20
2019-02-18T01:18:27.610Z,1459.20
2019-02-18T01:18:55.903Z,1459.20
2019-02-18T01:19:24.322Z,1459.20
2019-02-18T01:19:52.801Z,1459.20
2019-02-18T01:20:21.109Z,1459.20
2019-02-18T01:20:49.471Z,1459.20
2019-02-18T01:21:17.845Z,1459.20
2019-02-18T01:21:46.213Z,1459.20
2019-02-18T01:22:14.608Z,1459.20
2019-02-18T01:22:43.081Z,1459.20
2019-02-18T01:23:11.445Z,1459.20
2019-02-18T01:23:39.817Z,1459.20
2019-02-18T01:24:08.184Z,1459.20
2019-02-18T01:24:36.554Z,1459.20
2019-02-18T01:25:06.387Z,1459.20
2019-02-18T01:25:34.749Z,1459.20
2019-02-18T01:26:03.114Z,1459.20
2019-02-18T01:26:31.409Z,1459.20
2019-02-18T01:26:59.741Z,1459.20
2019-02-18T01:27:30.274Z,1459.20
2019-02-18T01:27:58.631Z,1459.20
2019-02-18T01:28:27.042Z,1459.20
2019-02-18T01:28:55.421Z,1459.20
2019-02-18T01:29:23.958Z,1459.20
2019-02-18T01:29:52.251Z,1459.20
2019-02-18T01:30:20.625Z,1459.20
2019-02-18T01:30:49.022Z,1459.20
2019-02-18T01:31:17.319Z,1459.20
2019-02-18T01:31:45.706Z,1459.20
2019-02-18T01:32:14.112Z,1459.20
2019-02-18T01:32:42.480Z,1459.20
2019-02-18T01:33:10.850Z,1459.20
2019-02-18T01:33:39.222Z,1459.20
2019-02-18T01:34:07.600Z,1459.20
2019-02-18T01:34:35.962Z,1459.20
2019-02-18T01:35:04.703Z,1459.20
2019-02-18T01:35:33.075Z,1459.20
2019-02-18T01:36:01.370Z,1459.20
2019-02-18T01:36:29.738Z,1459.20
2019-02-18T01:36:58.145Z,1459.20
2019-02-18T01:37:26.617Z,1484.80
2019-02-18T01:37:54.922Z,1459.20
2019-02-18T01:38:23.294Z,1459.20
2019-02-18T01:38:51.665Z,1459.20
2019-02-18T01:39:20.034Z,1459.20
2019-02-18T01:39:48.399Z,1459.20
2019-02-18T01:40:16.778Z,1459.20
2019-02-18T01:40:45.230Z,1459.20
2019-02-18T01:41:13.606Z,1459.20
2019-02-18T01:41:41.992Z,1459.20
2019-02-18T01:42:10.340Z,1459.20
2019-02-18T01:42:38.710Z,1459.20
2019-02-18T01:43:07.114Z,1459.20
2019-02-18T01:43:35.414Z,1459.20
2019-02-18T01:44:03.805Z,1459.20
2019-02-18T01:44:32.126Z,1459.20
2019-02-18T01:45:00.491Z,1459.20
2019-02-18T01:45:28.859Z,1459.20
2019-02-18T01:45:57.235Z,1459.20
2019-02-18T01:46:25.636Z,1459.20
2019-02-18T01:46:54.022Z,1459.20
2019-02-18T01:47:22.318Z,1459.20
2019-02-18T01:47:50.718Z,1459.20
2019-02-18T01:48:19.127Z,1433.60
2019-02-18T01:48:47.566Z,1459.20
2019-02-18T01:49:15.937Z,1459.20
2019-02-18T01:49:44.225Z,1459.20
2019-02-18T01:50:14.258Z,1459.20
2019-02-18T01:50:42.631Z,1459.20
2019-02-18T01:51:11.010Z,1459.20
2019-02-18T01:51:39.365Z,1459.20
2019-02-18T01:52:07.798Z,1459.20
2019-02-18T01:52:36.098Z,1459.20
2019-02-18T01:53:04.492Z,1459.20
2019-02-18T01:53:32.865Z,1459.20
2019-02-18T01:54:01.337Z,1459.20
2019-02-18T01:54:29.731Z,1459.20
2019-02-18T01:54:58.075Z,1459.20
2019-02-18T01:55:26.522Z,1459.20
2019-02-18T01:55:54.897Z,1459.20
2019-02-18T01:56:23.266Z,1459.20
2019-02-18T01:56:51.561Z,1459.20
2019-02-18T01:57:19.938Z,1459.20
2019-02-18T01:57:48.298Z,1459.20
2019-02-18T01:58:16.690Z,1459.20
2019-02-18T01:58:45.066Z,1459.20
2019-02-18T01:59:13.370Z,1459.20
2019-02-18T01:59:41.741Z,1459.20
2019-02-18T02:00:16.599Z,1459.20
2019-02-18T02:00:44.966Z,1459.20
2019-02-18T02:01:13.257Z,1459.20
2019-02-18T02:01:41.566Z,1459.20
2019-02-18T02:02:09.938Z,1459.20
2019-02-18T02:02:38.314Z,1459.20
2019-02-18T02:03:06.746Z,1459.20
2019-02-18T02:03:35.168Z,1459.20
2019-02-18T02:04:03.543Z,1459.20
2019-02-18T02:04:31.905Z,1459.20
2019-02-18T02:05:00.360Z,1459.20
2019-02-18T02:05:28.666Z,1459.20
2019-02-18T02:05:56.957Z,1459.20
2019-02-18T02:06:25.409Z,1459.20
2019-02-18T02:06:53.774Z,1459.20
2019-02-18T02:07:22.150Z,1459.20
2019-02-18T02:07:56.320Z,1459.20
2019-02-18T02:08:20.490Z,1459.20
2019-02-18T02:08:48.853Z,1459.20
2019-02-18T02:09:17.227Z,1459.20
2019-02-18T02:09:45.670Z,1459.20
2019-02-18T02:10:15.374Z,1459.20
2019-02-18T02:10:43.757Z,1459.20
2019-02-18T02:11:12.121Z,1459.20
2019-02-18T02:11:40.418Z,1459.20
2019-02-18T02:12:08.794Z,1459.20
2019-02-18T02:12:37.169Z,1459.20
2019-02-18T02:13:30.498Z,1459.20
2019-02-18T02:13:58.866Z,1459.20
2019-02-18T02:14:27.241Z,1459.20
2019-02-18T02:14:55.606Z,1459.20
2019-02-18T02:15:26.914Z,1459.20
2019-02-18T02:15:55.535Z,1459.20
2019-02-18T02:16:23.894Z,1459.20
2019-02-18T02:16:52.262Z,1459.20
2019-02-18T02:17:20.554Z,1459.20
2019-02-18T02:17:48.951Z,1459.20
2019-02-18T02:18:17.298Z,1459.20
2019-02-18T02:18:48.651Z,1459.20
2019-02-18T02:19:16.947Z,1459.20
2019-02-18T02:19:45.313Z,1459.20
2019-02-18T02:20:13.611Z,1459.20
2019-02-18T02:20:41.994Z,1459.20
2019-02-18T02:21:10.365Z,1459.20
2019-02-18T02:21:38.729Z,1459.20
2019-02-18T02:22:07.112Z,1459.20
2019-02-18T02:22:35.482Z,1459.20
2019-02-18T02:23:03.871Z,1459.20
2019-02-18T02:23:32.249Z,1459.20
2019-02-18T02:24:00.619Z,1459.20
2019-02-18T02:24:28.997Z,1459.20
2019-02-18T02:24:57.374Z,1459.20
2019-02-18T02:25:25.728Z,1459.20
2019-02-18T02:25:54.096Z,1459.20
2019-02-18T02:26:22.471Z,1459.20
2019-02-18T02:26:50.833Z,1459.20
2019-02-18T02:27:19.227Z,1459.20
2019-02-18T02:27:47.605Z,1459.20
2019-02-18T02:28:15.974Z,1459.20
2019-02-18T02:28:44.367Z,1459.20
2019-02-18T02:29:12.802Z,1459.20
2019-02-18T02:29:41.103Z,1459.20
2019-02-18T02:30:10.215Z,1459.20
2019-02-18T02:30:38.594Z,1459.20
2019-02-18T02:31:07.060Z,1459.20
2019-02-18T02:31:35.426Z,1459.20
2019-02-18T02:32:03.817Z,1459.20
2019-02-18T02:32:32.178Z,1459.20
2019-02-18T02:33:00.545Z,1459.20
2019-02-18T02:33:28.945Z,1484.80
2019-02-18T02:33:57.395Z,1459.20
2019-02-18T02:34:25.760Z,1459.20
2019-02-18T02:34:54.126Z,1459.20
2019-02-18T02:35:22.496Z,1459.20
2019-02-18T02:35:50.869Z,1459.20
2019-02-18T02:36:19.239Z,1459.20
2019-02-18T02:36:47.608Z,1459.20
2019-02-18T02:37:15.982Z,1459.20
2019-02-18T02:37:44.511Z,1459.20
2019-02-18T02:38:12.812Z,1459.20
2019-02-18T02:38:41.203Z,1484.80
2019-02-18T02:39:09.566Z,1484.80
2019-02-18T02:39:38.099Z,1459.20
2019-02-18T02:40:08.946Z,1484.80
2019-02-18T02:40:37.271Z,1484.80
2019-02-18T02:41:05.641Z,1484.80
2019-02-18T02:41:33.997Z,1459.20
2019-02-18T02:42:02.356Z,1459.20
2019-02-18T02:42:30.670Z,1484.80
2019-02-18T02:42:59.038Z,1484.80
2019-02-18T02:43:27.333Z,1484.80
2019-02-18T02:43:55.720Z,1484.80
2019-02-18T02:44:24.081Z,1484.80
2019-02-18T02:44:52.453Z,1484.80
2019-02-18T02:45:20.816Z,1484.80
2019-02-18T02:45:49.199Z,1484.80
2019-02-18T02:46:17.630Z,1484.80
2019-02-18T02:46:45.926Z,1484.80
2019-02-18T02:47:14.217Z,1484.80
2019-02-18T02:47:42.515Z,1484.80
2019-02-18T02:48:11.007Z,1484.80
2019-02-18T02:48:39.577Z,1484.80
2019-02-18T02:49:07.977Z,1484.80
2019-02-18T02:49:36.347Z,1484.80
2019-02-18T02:50:05.858Z,1484.80
2019-02-18T02:50:34.166Z,1484.80
2019-02-18T02:51:02.462Z,1484.80
2019-02-18T02:51:30.758Z,1484.80
2019-02-18T02:51:59.127Z,1484.80
2019-02-18T02:52:27.504Z,1484.80
2019-02-18T02:52:55.874Z,1484.80
2019-02-18T02:53:24.170Z,1484.80
2019-02-18T02:53:52.585Z,1484.80
2019-02-18T02:54:20.970Z,1484.80
2019-02-18T02:54:49.334Z,1484.80
2019-02-18T02:55:17.626Z,1484.80
2019-02-18T02:55:45.950Z,1484.80
2019-02-18T02:56:14.254Z,1484.80
2019-02-18T02:56:42.616Z,1484.80
2019-02-18T02:57:11.002Z,1484.80
2019-02-18T02:57:39.374Z,1484.80
2019-02-18T02:58:07.708Z,1484.80
2019-02-18T02:58:36.074Z,1484.80
2019-02-18T02:59:04.466Z,1484.80
2019-02-18T02:59:32.838Z,1484.80
2019-02-18T03:00:01.209Z,1484.80
2019-02-18T03:00:29.522Z,1484.80
2019-02-18T03:00:57.811Z,1484.80
2019-02-18T03:01:26.190Z,1484.80
2019-02-18T03:01:54.553Z,1484.80
2019-02-18T03:02:22.846Z,1484.80
2019-02-18T03:02:51.209Z,1484.80
2019-02-18T03:03:19.582Z,1484.80
2019-02-18T03:03:47.974Z,1484.80
2019-02-18T03:04:16.379Z,1484.80
2019-02-18T03:04:44.799Z,1484.80
2019-02-18T03:05:13.161Z,1484.80
2019-02-18T03:05:41.461Z,1484.80
2019-02-18T03:06:09.826Z,1484.80
2019-02-18T03:06:38.137Z,1484.80
2019-02-18T03:07:06.526Z,1484.80
2019-02-18T03:07:34.819Z,1484.80
2019-02-18T03:08:03.189Z,1484.80
2019-02-18T03:08:31.562Z,1484.80
2019-02-18T03:08:59.957Z,1484.80
2019-02-18T03:09:28.342Z,1484.80
2019-02-18T03:09:56.633Z,1484.80
2019-02-18T03:10:25.078Z,1484.80
2019-02-18T03:10:53.542Z,1484.80
2019-02-18T03:11:21.922Z,1484.80
2019-02-18T03:11:50.289Z,1484.80
2019-02-18T03:12:18.663Z,1484.80
2019-02-18T03:12:47.026Z,1484.80
2019-02-18T03:13:15.395Z,1484.80
2019-02-18T03:13:43.754Z,1484.80
2019-02-18T03:14:12.204Z,1484.80
2019-02-18T03:14:40.571Z,1484.80
2019-02-18T03:15:16.174Z,1484.80
2019-02-18T03:15:44.551Z,1484.80
2019-02-18T03:16:12.924Z,1484.80
2019-02-18T03:16:41.294Z,1484.80
2019-02-18T03:17:09.762Z,1484.80
2019-02-18T03:17:38.132Z,1484.80
2019-02-18T03:18:06.497Z,1484.80
2019-02-18T03:18:34.799Z,1484.80
2019-02-18T03:19:03.166Z,1484.80
2019-02-18T03:19:31.488Z,1484.80
2019-02-18T03:19:59.853Z,1484.80
2019-02-18T03:20:28.214Z,1484.80
2019-02-18T03:20:56.582Z,1484.80
2019-02-18T03:21:24.951Z,1484.80
2019-02-18T03:21:53.315Z,1484.80
2019-02-18T03:22:21.677Z,1484.80
2019-02-18T03:22:50.046Z,1484.80
2019-02-18T03:23:18.506Z,1484.80
2019-02-18T03:23:46.802Z,1484.80
2019-02-18T03:24:15.167Z,1484.80
2019-02-18T03:25:01.825Z,1484.80
2019-02-18T03:25:31.543Z,1484.80
2019-02-18T03:25:59.918Z,1484.80
2019-02-18T03:26:28.294Z,1484.80
2019-02-18T03:26:56.700Z,1484.80
2019-02-18T03:27:25.061Z,1484.80
2019-02-18T03:28:23.701Z,1484.80
2019-02-18T03:29:09.591Z,1484.80
2019-02-18T03:29:57.729Z,1484.80
2019-02-18T03:30:44.780Z,1484.80
2019-02-18T03:31:22.613Z,1484.80
2019-02-18T03:31:51.001Z,1484.80
2019-02-18T03:32:19.418Z,1484.80
2019-02-18T03:32:47.894Z,1484.80
2019-02-18T03:33:31.997Z,1484.80
2019-02-18T03:34:06.494Z,1484.80
2019-02-18T03:34:36.889Z,1484.80
2019-02-18T03:35:05.012Z,1484.80
2019-02-18T03:35:33.350Z,1484.80
2019-02-18T03:36:01.728Z,1484.80
2019-02-18T03:36:30.108Z,1484.80
2019-02-18T03:36:58.474Z,1484.80
2019-02-18T03:37:26.848Z,1484.80
2019-02-18T03:37:55.218Z,1484.80
2019-02-18T03:38:31.111Z,1484.80
2019-02-18T03:38:53.605Z,1484.80
2019-02-18T03:39:21.974Z,1484.80
2019-02-18T03:39:50.278Z,1484.80
2019-02-18T03:40:18.692Z,1484.80
2019-02-18T03:40:47.045Z,1484.80
2019-02-18T03:41:15.458Z,1484.80
2019-02-18T03:41:43.819Z,1484.80
2019-02-18T03:42:12.190Z,1484.80
2019-02-18T03:42:40.554Z,1484.80
2019-02-18T03:43:08.927Z,1484.80
2019-02-18T03:43:37.299Z,1484.80
2019-02-18T03:44:05.673Z,1484.80
2019-02-18T03:44:34.085Z,1484.80
2019-02-18T03:45:02.487Z,1484.80
2019-02-18T03:45:30.879Z,1484.80
2019-02-18T03:45:59.223Z,1484.80
2019-02-18T03:46:27.608Z,1484.80
2019-02-18T03:46:55.983Z,1484.80
2019-02-18T03:47:24.347Z,1484.80
2019-02-18T03:47:52.718Z,1484.80
2019-02-18T03:48:21.136Z,1484.80
2019-02-18T03:48:49.497Z,1484.80
2019-02-18T03:49:17.858Z,1484.80
2019-02-18T03:49:46.341Z,1484.80
2019-02-18T03:50:14.725Z,1484.80
2019-02-18T03:50:43.118Z,1484.80
2019-02-18T03:51:11.491Z,1484.80
2019-02-18T03:51:39.854Z,1484.80
2019-02-18T03:52:08.150Z,1484.80
2019-02-18T03:52:36.534Z,1484.80
2019-02-18T03:53:04.889Z,1484.80
2019-02-18T03:53:33.252Z,1484.80
2019-02-18T03:54:01.618Z,1484.80
2019-02-18T03:54:29.989Z,1484.80
2019-02-18T03:54:58.290Z,1484.80
2019-02-18T03:55:26.852Z,1484.80
2019-02-18T03:55:55.227Z,1484.80
2019-02-18T03:56:23.594Z,1484.80
2019-02-18T03:56:51.898Z,1484.80
2019-02-18T03:57:20.263Z,1484.80
2019-02-18T03:57:48.644Z,1484.80
2019-02-18T03:58:17.010Z,1484.80
2019-02-18T03:58:45.383Z,1484.80
2019-02-18T03:59:13.760Z,1484.80
2019-02-18T03:59:42.119Z,1484.80
2019-02-18T04:00:12.019Z,1484.80
2019-02-18T04:00:40.412Z,1484.80
2019-02-18T04:01:08.779Z,1484.80
2019-02-18T04:01:37.151Z,1484.80
2019-02-18T04:02:05.514Z,1484.80
2019-02-18T04:02:33.882Z,1484.80
2019-02-18T04:03:02.255Z,1484.80
2019-02-18T04:03:30.626Z,1484.80
2019-02-18T04:03:59.021Z,1484.80
2019-02-18T04:04:27.390Z,1484.80
2019-02-18T04:04:55.755Z,1484.80
2019-02-18T04:05:24.051Z,1484.80
2019-02-18T04:05:52.447Z,1484.80
2019-02-18T04:06:20.814Z,1484.80
2019-02-18T04:06:49.111Z,1484.80
2019-02-18T04:07:17.473Z,1484.80
2019-02-18T04:07:45.768Z,1484.80
2019-02-18T04:08:16.891Z,1484.80
2019-02-18T04:08:45.348Z,1484.80
2019-02-18T04:09:13.712Z,1484.80
2019-02-18T04:09:42.081Z,1484.80
2019-02-18T04:10:11.114Z,1484.80
2019-02-18T04:10:39.587Z,1484.80
2019-02-18T04:11:08.055Z,1484.80
2019-02-18T04:11:36.345Z,1484.80
2019-02-18T04:12:04.714Z,1484.80
2019-02-18T04:12:33.082Z,1484.80
2019-02-18T04:13:01.465Z,1484.80
2019-02-18T04:13:29.835Z,1484.80
2019-02-18T04:13:58.202Z,1484.80
2019-02-18T04:14:26.678Z,1484.80
2019-02-18T04:14:55.050Z,1484.80
2019-02-18T04:15:23.414Z,1484.80
2019-02-18T04:15:51.821Z,1484.80
2019-02-18T04:16:20.187Z,1484.80
2019-02-18T04:16:48.562Z,1484.80
2019-02-18T04:17:16.935Z,1484.80
2019-02-18T04:17:45.234Z,1484.80
2019-02-18T04:18:13.609Z,1484.80
2019-02-18T04:18:41.983Z,1484.80
2019-02-18T04:19:10.364Z,1484.80
2019-02-18T04:19:38.729Z,1484.80
2019-02-18T04:20:07.734Z,1484.80
2019-02-18T04:20:36.113Z,1484.80
2019-02-18T04:21:04.515Z,1484.80
2019-02-18T04:21:32.870Z,1484.80
2019-02-18T04:22:01.205Z,1484.80
2019-02-18T04:22:29.570Z,1484.80
2019-02-18T04:22:57.956Z,1484.80
2019-02-18T04:23:26.322Z,1484.80
2019-02-18T04:23:54.646Z,1484.80
2019-02-18T04:24:22.950Z,1484.80
2019-02-18T04:24:51.337Z,1484.80
2019-02-18T04:25:19.707Z,1484.80
2019-02-18T04:25:48.078Z,1484.80
2019-02-18T04:26:16.464Z,1484.80
2019-02-18T04:26:44.834Z,1484.80
2019-02-18T04:27:13.215Z,1484.80
2019-02-18T04:27:41.586Z,1484.80
2019-02-18T04:28:09.953Z,1484.80
2019-02-18T04:28:38.248Z,1484.80
2019-02-18T04:29:06.618Z,1484.80
2019-02-18T04:29:34.981Z,1484.80
2019-02-18T04:30:04.066Z,1484.80
2019-02-18T04:30:32.425Z,1484.80
2019-02-18T04:31:00.823Z,1484.80
2019-02-18T04:31:29.201Z,1484.80
2019-02-18T04:31:57.564Z,1484.80
2019-02-18T04:32:25.933Z,1484.80
2019-02-18T04:32:54.301Z,1484.80
2019-02-18T04:33:22.675Z,1484.80
2019-02-18T04:33:50.978Z,1484.80
2019-02-18T04:34:19.412Z,1484.80
2019-02-18T04:34:47.773Z,1484.80
2019-02-18T04:35:16.168Z,1484.80
2019-02-18T04:35:44.514Z,1484.80
2019-02-18T04:36:12.934Z,1484.80
2019-02-18T04:36:41.307Z,1484.80
2019-02-18T04:37:09.681Z,1484.80
2019-02-18T04:37:38.050Z,1484.80
2019-02-18T04:38:06.442Z,1484.80
2019-02-18T04:38:34.799Z,1484.80
2019-02-18T04:39:04.641Z,1484.80
2019-02-18T04:39:33.001Z,1484.80
2019-02-18T04:40:01.379Z,1484.80
2019-02-18T04:40:29.753Z,1484.80
2019-02-18T04:40:58.138Z,1484.80
2019-02-18T04:41:26.520Z,1484.80
2019-02-18T04:41:55.009Z,1484.80
2019-02-18T04:42:23.379Z,1484.80
2019-02-18T04:42:51.743Z,1484.80
2019-02-18T04:43:20.120Z,1484.80
2019-02-18T04:43:48.483Z,1484.80
2019-02-18T04:44:16.865Z,1484.80
2019-02-18T04:44:45.274Z,1484.80
2019-02-18T04:45:13.608Z,1484.80
2019-02-18T04:45:41.981Z,1484.80
2019-02-18T04:46:10.343Z,1484.80
2019-02-18T04:46:38.739Z,1484.80
2019-02-18T04:47:07.132Z,1484.80
2019-02-18T04:47:35.573Z,1484.80
2019-02-18T04:48:03.933Z,1484.80
2019-02-18T04:48:32.251Z,1484.80
2019-02-18T04:49:00.612Z,1484.80
2019-02-18T04:49:28.998Z,1484.80
2019-02-18T04:49:57.294Z,1484.80
2019-02-18T04:50:25.587Z,1484.80
2019-02-18T04:50:53.879Z,1484.80
2019-02-18T04:51:22.252Z,1484.80
2019-02-18T04:51:50.646Z,1484.80
2019-02-18T04:52:19.010Z,1484.80
2019-02-18T04:52:47.382Z,1484.80
2019-02-18T04:53:15.754Z,1484.80
2019-02-18T04:53:44.117Z,1484.80
2019-02-18T04:54:12.489Z,1484.80
2019-02-18T04:54:40.854Z,1484.80
2019-02-18T04:55:10.561Z,1484.80
2019-02-18T04:55:38.926Z,1484.80
2019-02-18T04:56:07.236Z,1484.80
2019-02-18T04:56:35.606Z,1484.80
2019-02-18T04:57:03.993Z,1484.80
2019-02-18T04:57:32.287Z,1484.80
2019-02-18T04:58:00.649Z,1484.80
2019-02-18T04:58:29.088Z,1484.80
2019-02-18T04:58:57.454Z,1484.80
2019-02-18T04:59:25.747Z,1484.80
2019-02-18T04:59:54.109Z,1484.80
2019-02-18T05:00:22.482Z,1484.80
2019-02-18T05:00:50.782Z,1484.80
2019-02-18T05:01:19.145Z,1484.80
2019-02-18T05:01:47.520Z,1484.80
2019-02-18T05:02:15.924Z,1484.80
2019-02-18T05:02:44.291Z,1484.80
2019-02-18T05:03:12.748Z,1484.80
2019-02-18T05:03:41.122Z,1484.80
2019-02-18T05:04:09.486Z,1484.80
2019-02-18T05:04:37.864Z,1484.80
2019-02-18T05:05:08.400Z,1484.80
2019-02-18T05:05:36.771Z,1484.80
2019-02-18T05:06:05.142Z,1484.80
2019-02-18T05:06:33.526Z,1484.80
2019-02-18T05:07:01.929Z,1484.80
2019-02-18T05:07:30.292Z,1484.80
2019-02-18T05:07:58.663Z,1484.80
2019-02-18T05:08:27.022Z,1484.80
2019-02-18T05:09:05.054Z,1484.80
2019-02-18T05:09:25.406Z,1484.80
2019-02-18T05:09:53.785Z,1484.80
2019-02-18T05:10:22.147Z,1484.80
2019-02-18T05:10:50.510Z,1484.80
2019-02-18T05:11:18.879Z,1484.80
2019-02-18T05:11:47.274Z,1484.80
2019-02-18T05:12:15.665Z,1484.80
2019-02-18T05:12:44.034Z,1484.80
2019-02-18T05:13:12.329Z,1484.80
2019-02-18T05:13:40.693Z,1484.80
2019-02-18T05:14:08.989Z,1484.80
2019-02-18T05:14:37.358Z,1484.80
2019-02-18T05:15:07.367Z,1484.80
2019-02-18T05:15:35.737Z,1484.80
2019-02-18T05:16:04.106Z,1484.80
2019-02-18T05:16:32.488Z,1484.80
2019-02-18T05:17:00.857Z,1484.80
2019-02-18T05:17:29.238Z,1484.80
2019-02-18T05:17:57.612Z,1484.80
2019-02-18T05:18:25.982Z,1484.80
2019-02-18T05:18:54.353Z,1484.80
2019-02-18T05:19:23.112Z,1484.80
2019-02-18T05:19:51.551Z,1484.80
2019-02-18T05:20:19.922Z,1484.80
2019-02-18T05:20:48.294Z,1484.80
2019-02-18T05:21:16.656Z,1484.80
2019-02-18T05:21:45.017Z,1484.80
2019-02-18T05:22:13.334Z,1484.80
2019-02-18T05:22:41.706Z,1459.20
2019-02-18T05:23:10.105Z,1459.20
2019-02-18T05:23:38.401Z,1459.20
2019-02-18T05:24:06.769Z,1459.20
2019-02-18T05:24:35.141Z,1484.80
2019-02-18T05:25:04.478Z,1484.80
2019-02-18T05:25:32.849Z,1484.80
2019-02-18T05:26:01.153Z,1510.40
2019-02-18T05:26:29.531Z,1510.40
2019-02-18T05:26:57.900Z,1484.80
2019-02-18T05:27:33.369Z,1510.40
2019-02-18T05:27:56.418Z,1536.00
2019-02-18T05:28:24.714Z,1536.00
2019-02-18T05:28:53.109Z,1510.40
2019-02-18T05:29:21.478Z,1510.40
2019-02-18T05:29:49.846Z,1510.40
2019-02-18T05:30:18.285Z,1510.40
2019-02-18T05:30:46.635Z,1536.00
2019-02-18T05:31:15.014Z,1510.40
2019-02-18T05:31:43.383Z,1510.40
2019-02-18T05:32:11.785Z,1536.00
2019-02-18T05:32:40.151Z,1561.60
2019-02-18T05:33:08.550Z,1561.60
2019-02-18T05:33:36.927Z,1587.20
2019-02-18T05:34:05.298Z,1587.20
2019-02-18T05:34:33.672Z,1561.60
2019-02-18T05:35:02.066Z,1587.20
2019-02-18T05:35:30.431Z,1587.20
2019-02-18T05:35:58.816Z,1587.20
2019-02-18T05:36:27.186Z,1587.20
2019-02-18T05:36:55.479Z,1587.20
2019-02-18T05:37:23.818Z,1587.20
2019-02-18T05:37:52.186Z,1587.20
2019-02-18T05:38:20.494Z,1587.20
2019-02-18T05:38:48.859Z,1587.20
2019-02-18T05:39:18.511Z,1561.60
2019-02-18T05:39:47.115Z,1484.80
2019-02-18T05:40:15.509Z,1536.00
2019-02-18T05:40:43.887Z,1510.40
2019-02-18T05:41:12.258Z,1536.00
2019-02-18T05:41:40.665Z,1561.60
2019-02-18T05:42:09.007Z,1587.20
2019-02-18T05:42:37.400Z,1587.20
2019-02-18T05:43:05.774Z,1587.20
2019-02-18T05:43:34.176Z,1587.20
2019-02-18T05:44:02.548Z,1587.20
2019-02-18T05:44:30.932Z,1587.20
2019-02-18T05:44:59.318Z,1587.20
2019-02-18T05:45:27.679Z,1587.20
2019-02-18T05:45:56.060Z,1587.20
2019-02-18T05:46:24.467Z,1587.20
2019-02-18T05:46:53.058Z,1587.20
2019-02-18T05:47:21.414Z,1587.20